createdAt,value
2018-10-11T00:00:03.160Z,8.87
2018-10-11T00:02:31.359Z,9.10
2018-10-11T00:04:59.569Z,8.53
2018-10-11T00:07:27.756Z,8.97
2018-10-11T00:09:55.957Z,8.70
2018-10-11T00:12:24.281Z,8.50
2018-10-11T00:14:52.651Z,9.33
2018-10-11T00:17:20.874Z,10.00
2018-10-11T00:19:49.108Z,9.90
2018-10-11T00:22:17.297Z,9.70
2018-10-11T00:24:45.530Z,10.90
2018-10-11T00:27:13.705Z,9.93
2018-10-11T00:29:41.934Z,10.77
2018-10-11T00:32:10.109Z,10.70
2018-10-11T00:34:38.325Z,11.53
2018-10-11T00:37:06.900Z,10.73
2018-10-11T00:39:35.110Z,10.03
2018-10-11T00:42:03.317Z,11.10
2018-10-11T00:44:31.530Z,11.17
2018-10-11T00:46:59.726Z,11.10
2018-10-11T00:49:27.963Z,11.60
2018-10-11T00:51:56.151Z,11.10
2018-10-11T00:54:24.361Z,10.53
2018-10-11T00:56:52.564Z,10.57
2018-10-11T00:59:21.005Z,11.20
2018-10-11T01:01:49.209Z,10.30
2018-10-11T01:04:17.446Z,11.57
2018-10-11T01:06:45.665Z,10.00
2018-10-11T01:09:13.910Z,9.53
2018-10-11T01:11:42.325Z,10.10
2018-10-11T01:14:11.118Z,10.03
2018-10-11T01:16:39.502Z,11.37
2018-10-11T01:19:07.968Z,11.30
2018-10-11T01:21:36.397Z,12.20
2018-10-11T01:24:04.622Z,12.63
2018-10-11T01:26:32.836Z,11.40
2018-10-11T01:29:01.019Z,11.10
2018-10-11T01:31:29.247Z,9.63
2018-10-11T01:33:57.430Z,9.93
2018-10-11T01:36:25.652Z,10.73
2018-10-11T01:38:54.349Z,11.23
2018-10-11T01:41:22.665Z,9.83
2018-10-11T01:43:51.045Z,10.87
2018-10-11T01:46:19.266Z,10.53
2018-10-11T01:48:47.488Z,10.23
2018-10-11T01:51:16.609Z,10.20
2018-10-11T01:53:44.829Z,10.50
2018-10-11T01:56:13.061Z,10.47
2018-10-11T01:58:41.258Z,9.13
2018-10-11T02:01:09.672Z,15.43
2018-10-11T02:03:37.865Z,11.97
2018-10-11T02:06:06.373Z,12.43
2018-10-11T02:08:34.583Z,12.87
2018-10-11T02:11:02.843Z,13.10
2018-10-11T02:13:31.033Z,11.70
2018-10-11T02:15:59.261Z,11.20
2018-10-11T02:18:27.481Z,11.20
2018-10-11T02:20:55.677Z,10.37
2018-10-11T02:23:23.890Z,11.07
2018-10-11T02:25:52.074Z,10.10
2018-10-11T02:28:20.499Z,8.93
2018-10-11T02:30:48.681Z,10.23
2018-10-11T02:33:16.925Z,9.53
2018-10-11T02:35:45.151Z,10.70
2018-10-11T02:38:13.341Z,9.53
2018-10-11T02:40:41.546Z,9.50
2018-10-11T02:43:09.746Z,9.13
2018-10-11T02:45:37.929Z,9.13
2018-10-11T02:48:06.576Z,8.80
2018-10-11T02:50:35.018Z,9.07
2018-10-11T02:53:03.215Z,9.13
2018-10-11T02:55:31.433Z,10.40
2018-10-11T02:58:11.024Z,10.50
2018-10-11T03:00:39.404Z,9.17
2018-10-11T03:03:10.234Z,9.90
2018-10-11T03:05:41.062Z,9.63
2018-10-11T03:08:11.505Z,11.53
2018-10-11T03:10:39.869Z,9.97
2018-10-11T03:13:09.833Z,10.33
2018-10-11T03:15:38.055Z,9.87
2018-10-11T03:18:06.279Z,10.13
2018-10-11T03:20:34.477Z,10.23
2018-10-11T03:23:02.701Z,10.60
2018-10-11T03:25:30.881Z,9.90
2018-10-11T03:27:59.076Z,9.33
2018-10-11T03:30:27.262Z,8.80
2018-10-11T03:32:55.553Z,9.87
2018-10-11T03:35:23.886Z,10.17
2018-10-11T03:37:52.105Z,10.30
2018-10-11T03:40:20.321Z,9.90
2018-10-11T03:42:48.539Z,9.57
2018-10-11T03:45:16.729Z,8.83
2018-10-11T03:47:44.939Z,9.10
2018-10-11T03:50:13.201Z,10.27
2018-10-11T03:52:41.381Z,10.37
2018-10-11T03:55:09.777Z,10.10
2018-10-11T03:57:37.975Z,9.80
2018-10-11T04:00:06.355Z,9.53
2018-10-11T04:02:34.601Z,9.00
2018-10-11T04:05:02.822Z,10.90
2018-10-11T04:07:31.096Z,10.60
2018-10-11T04:09:59.229Z,9.40
2018-10-11T04:12:27.429Z,9.20
2018-10-11T04:14:55.614Z,10.27
2018-10-11T04:17:23.914Z,9.00
2018-10-11T04:19:52.139Z,9.77
2018-10-11T04:22:20.353Z,9.73
2018-10-11T04:24:48.562Z,10.93
2018-10-11T04:27:16.765Z,15.20
2018-10-11T04:29:44.977Z,10.10
2018-10-11T04:32:13.170Z,12.33
2018-10-11T04:34:41.430Z,10.10
2018-10-11T04:37:09.959Z,11.47
2018-10-11T04:39:38.390Z,11.57
2018-10-11T04:42:07.217Z,10.13
2018-10-11T04:44:36.408Z,11.27
2018-10-11T04:47:04.956Z,12.10
2018-10-11T04:49:33.382Z,12.50
2018-10-11T04:52:01.562Z,11.60
2018-10-11T04:54:29.785Z,13.70
2018-10-11T04:56:57.969Z,11.97
2018-10-11T04:59:26.193Z,11.50
2018-10-11T05:01:54.463Z,9.10
2018-10-11T05:04:22.673Z,9.80
2018-10-11T05:06:50.873Z,9.40
2018-10-11T05:09:19.089Z,11.00
2018-10-11T05:11:47.306Z,10.27
2018-10-11T05:14:15.677Z,11.17
2018-10-11T05:16:44.105Z,10.10
2018-10-11T05:19:12.349Z,10.77
2018-10-11T05:21:40.865Z,11.13
2018-10-11T05:24:09.203Z,11.63
2018-10-11T05:26:37.419Z,11.77
2018-10-11T05:29:05.633Z,10.57
2018-10-11T05:31:33.857Z,9.97
2018-10-11T05:34:02.062Z,11.83
2018-10-11T05:36:30.262Z,11.43
2018-10-11T05:38:58.550Z,11.37
2018-10-11T05:41:26.798Z,14.07
2018-10-11T05:43:55.033Z,13.03
2018-10-11T05:46:30.496Z,12.40
2018-10-11T05:48:59.412Z,14.10
2018-10-11T05:51:28.377Z,14.03
2018-10-11T05:53:57.197Z,12.00
2018-10-11T05:56:27.513Z,11.60
2018-10-11T05:58:56.033Z,11.17
2018-10-11T06:01:24.883Z,13.87
2018-10-11T06:03:53.502Z,12.87
2018-10-11T06:06:21.757Z,13.30
2018-10-11T06:08:50.017Z,12.40
2018-10-11T06:11:18.253Z,13.67
2018-10-11T06:13:47.125Z,12.07
2018-10-11T06:16:15.486Z,11.87
2018-10-11T06:18:44.782Z,11.40
2018-10-11T06:21:13.231Z,12.10
2018-10-11T06:23:41.545Z,11.67
2018-10-11T06:26:09.782Z,13.10
2018-10-11T06:28:38.589Z,12.93
2018-10-11T06:31:07.108Z,13.13
2018-10-11T06:33:35.417Z,12.00
2018-10-11T06:36:04.086Z,14.03
2018-10-11T06:38:32.625Z,12.30
2018-10-11T06:41:00.869Z,11.50
2018-10-11T06:43:29.207Z,10.30
2018-10-11T06:45:57.564Z,13.40
2018-10-11T06:48:25.795Z,12.00
2018-10-11T06:50:54.322Z,11.07
2018-10-11T06:53:22.597Z,10.40
2018-10-11T06:55:50.863Z,13.73
2018-10-11T06:58:19.054Z,10.50
2018-10-11T07:00:47.273Z,11.77
2018-10-11T07:03:15.477Z,9.80
2018-10-11T07:05:43.706Z,10.17
2018-10-11T07:08:11.972Z,12.10
2018-10-11T07:10:40.209Z,12.80
2018-10-11T07:13:08.817Z,10.50
2018-10-11T07:15:37.255Z,11.53
2018-10-11T07:18:05.493Z,10.33
2018-10-11T07:20:33.953Z,11.23
2018-10-11T07:23:02.151Z,70.13
2018-10-11T07:25:30.365Z,23.60
2018-10-11T07:27:58.603Z,12.30
2018-10-11T07:30:27.550Z,11.73
2018-10-11T07:32:56.058Z,14.13
2018-10-11T07:35:24.599Z,9.70
2018-10-11T07:37:53.028Z,9.50
2018-10-11T07:40:21.307Z,9.93
2018-10-11T07:42:49.454Z,8.50
2018-10-11T07:45:18.067Z,10.33
2018-10-11T07:47:46.273Z,10.07
2018-10-11T07:50:14.521Z,9.77
2018-10-11T07:52:42.729Z,11.20
2018-10-11T07:55:10.973Z,8.40
2018-10-11T07:57:39.277Z,8.87
2018-10-11T08:00:10.815Z,7.00
2018-10-11T08:02:39.529Z,7.20
2018-10-11T08:05:07.780Z,9.00
2018-10-11T08:07:35.975Z,8.70
2018-10-11T08:10:04.194Z,7.80
2018-10-11T08:12:32.381Z,6.80
2018-10-11T08:15:00.595Z,7.60
2018-10-11T08:17:29.334Z,6.33
2018-10-11T08:19:57.535Z,7.50
2018-10-11T08:22:25.699Z,9.30
2018-10-11T08:24:54.150Z,6.63
2018-10-11T08:27:22.420Z,7.27
2018-10-11T08:29:50.615Z,7.10
2018-10-11T08:32:18.851Z,6.73
2018-10-11T08:34:47.025Z,5.60
2018-10-11T08:37:15.290Z,6.20
2018-10-11T08:39:43.546Z,5.50
2018-10-11T08:42:11.914Z,6.83
2018-10-11T08:44:40.131Z,6.47
2018-10-11T08:47:08.365Z,7.43
2018-10-11T08:49:36.621Z,6.13
2018-10-11T08:52:04.833Z,9.33
2018-10-11T08:54:38.516Z,8.30
2018-10-11T08:57:07.107Z,6.90
2018-10-11T08:59:35.507Z,5.50
2018-10-11T09:02:03.678Z,6.43
2018-10-11T09:04:31.974Z,6.08
2018-10-11T09:07:00.206Z,6.40
2018-10-11T09:09:28.457Z,7.83
2018-10-11T09:11:56.636Z,6.17
2018-10-11T09:14:24.857Z,6.40
2018-10-11T09:16:53.169Z,5.50
2018-10-11T09:19:21.673Z,5.57
2018-10-11T09:21:49.899Z,5.90
2018-10-11T09:24:18.161Z,6.10
2018-10-11T09:26:46.581Z,6.13
2018-10-11T09:29:15.073Z,5.40
2018-10-11T09:31:43.481Z,6.00
2018-10-11T09:34:11.690Z,5.30
2018-10-11T09:36:39.946Z,5.83
2018-10-11T09:39:08.998Z,5.80
2018-10-11T09:41:37.675Z,5.20
2018-10-11T09:44:06.402Z,5.60
2018-10-11T09:46:34.651Z,4.80
2018-10-11T09:49:03.405Z,6.20
2018-10-11T09:51:31.658Z,6.10
2018-10-11T09:53:59.914Z,5.20
2018-10-11T09:57:16.997Z,5.33
2018-10-11T09:59:45.260Z,5.07
2018-10-11T10:02:14.104Z,4.77
2018-10-11T10:04:43.869Z,5.63
2018-10-11T10:07:12.441Z,4.90
2018-10-11T10:09:41.613Z,5.15
2018-10-11T10:12:10.593Z,4.23
2018-10-11T10:14:39.421Z,4.40
2018-10-11T10:17:07.862Z,6.03
2018-10-11T10:19:40.705Z,5.07
2018-10-11T10:22:09.220Z,3.90
2018-10-11T10:24:38.194Z,5.00
2018-10-11T10:27:07.192Z,5.20
2018-10-11T10:29:36.247Z,3.90
2018-10-11T10:32:04.834Z,6.67
2018-10-11T10:34:33.164Z,5.70
2018-10-11T10:37:01.486Z,5.10
2018-10-11T10:39:29.731Z,4.60
2018-10-11T10:41:58.093Z,4.23
2018-10-11T10:44:26.299Z,3.90
2018-10-11T10:46:54.574Z,3.63
2018-10-11T10:49:22.869Z,3.73
2018-10-11T10:51:51.415Z,3.03
2018-10-11T10:54:31.515Z,4.70
2018-10-11T10:57:00.218Z,4.20
2018-10-11T10:59:28.707Z,3.60
2018-10-11T11:01:57.108Z,4.10
2018-10-11T11:04:25.429Z,4.20
2018-10-11T11:06:53.776Z,2.63
2018-10-11T11:09:22.058Z,2.90
2018-10-11T11:11:50.303Z,3.30
2018-10-11T11:14:18.795Z,2.70
2018-10-11T11:16:47.418Z,3.50
2018-10-11T11:19:16.353Z,2.97
2018-10-11T11:21:44.666Z,3.27
2018-10-11T11:24:12.999Z,4.03
2018-10-11T11:26:41.229Z,2.50
2018-10-11T11:29:09.581Z,2.60
2018-10-11T11:31:37.887Z,3.40
2018-10-11T11:34:06.442Z,3.20
2018-10-11T11:36:34.737Z,3.10
2018-10-11T11:39:05.507Z,2.50
2018-10-11T11:41:33.780Z,3.47
2018-10-11T11:44:02.491Z,3.00
2018-10-11T11:46:36.998Z,3.70
2018-10-11T11:49:05.783Z,3.37
2018-10-11T11:51:35.362Z,3.40
2018-10-11T11:54:03.609Z,3.40
2018-10-11T11:56:32.073Z,2.33
2018-10-11T11:59:00.934Z,2.33
2018-10-11T12:01:29.159Z,2.10
2018-10-11T12:03:57.414Z,3.97
2018-10-11T12:06:25.715Z,4.17
2018-10-11T12:08:54.434Z,6.60
2018-10-11T12:11:23.881Z,6.10
2018-10-11T12:13:52.126Z,5.20
2018-10-11T12:16:20.651Z,4.67
2018-10-11T12:18:48.935Z,4.17
2018-10-11T12:21:17.217Z,3.50
2018-10-11T12:23:45.510Z,4.30
2018-10-11T12:26:13.973Z,3.80
2018-10-11T12:28:42.400Z,5.37
2018-10-11T12:31:10.557Z,5.80
2018-10-11T12:33:39.002Z,4.60
2018-10-11T12:36:07.306Z,4.83
2018-10-11T12:38:35.876Z,5.43
2018-10-11T12:41:04.067Z,5.17
2018-10-11T12:43:32.421Z,5.07
2018-10-11T12:46:00.700Z,5.33
2018-10-11T12:48:28.962Z,4.80
2018-10-11T12:50:57.253Z,5.97
2018-10-11T12:53:25.555Z,4.80
2018-10-11T12:55:54.406Z,4.90
2018-10-11T12:58:24.652Z,5.37
2018-10-11T13:00:53.186Z,5.10
2018-10-11T13:03:21.481Z,6.13
2018-10-11T13:05:49.613Z,5.33
2018-10-11T13:08:17.867Z,6.47
2018-10-11T13:10:46.321Z,7.10
2018-10-11T13:13:14.544Z,6.20
2018-10-11T13:15:43.497Z,5.70
2018-10-11T13:18:11.702Z,6.00
2018-10-11T13:20:40.005Z,6.03
2018-10-11T13:23:14.514Z,6.23
2018-10-11T13:25:39.111Z,5.57
2018-10-11T13:28:08.233Z,5.47
2018-10-11T13:30:37.497Z,6.30
2018-10-11T13:33:05.770Z,6.00
2018-10-11T13:35:34.104Z,5.57
2018-10-11T13:38:02.378Z,5.00
2018-10-11T13:40:30.593Z,6.70
2018-10-11T13:42:59.238Z,7.08
2018-10-11T13:45:28.392Z,5.97
2018-10-11T13:47:57.815Z,5.80
2018-10-11T13:50:26.035Z,8.13
2018-10-11T13:52:54.636Z,6.50
2018-10-11T13:55:22.976Z,6.60
2018-10-11T13:57:51.254Z,6.30
2018-10-11T14:00:19.734Z,6.60
2018-10-11T14:02:47.928Z,5.97
2018-10-11T14:05:16.462Z,5.57
2018-10-11T14:07:44.999Z,5.10
2018-10-11T14:10:13.218Z,5.37
2018-10-11T14:12:41.557Z,4.97
2018-10-11T14:15:09.852Z,5.17
2018-10-11T14:17:38.332Z,5.23
2018-10-11T14:20:06.692Z,6.40
2018-10-11T14:22:35.332Z,8.50
2018-10-11T14:25:03.558Z,7.23
2018-10-11T14:27:31.899Z,7.13
2018-10-11T14:30:00.489Z,6.90
2018-10-11T14:32:28.701Z,6.27
2018-10-11T14:34:56.938Z,6.03
2018-10-11T14:37:25.212Z,6.13
2018-10-11T14:39:53.487Z,6.60
2018-10-11T14:42:21.717Z,6.03
2018-10-11T14:44:49.943Z,6.03
2018-10-11T14:47:18.173Z,6.90
2018-10-11T14:49:46.434Z,6.47
2018-10-11T14:52:14.776Z,7.30
2018-10-11T14:54:43.042Z,6.90
2018-10-11T14:57:11.490Z,7.93
2018-10-11T14:59:39.684Z,6.90
2018-10-11T15:02:07.842Z,7.30
2018-10-11T15:04:37.273Z,6.77
2018-10-11T15:07:06.213Z,7.10
2018-10-11T15:09:35.569Z,8.13
2018-10-11T15:12:03.792Z,6.57
2018-10-11T15:14:32.034Z,7.77
2018-10-11T15:17:00.400Z,6.50
2018-10-11T15:19:28.590Z,6.87
2018-10-11T15:21:56.821Z,6.80
2018-10-11T15:24:25.136Z,6.83
2018-10-11T15:26:53.477Z,6.43
2018-10-11T15:29:21.755Z,6.50
2018-10-11T15:31:49.935Z,6.33
2018-10-11T15:34:18.213Z,6.30
2018-10-11T15:36:46.710Z,5.70
2018-10-11T15:39:14.991Z,6.90
2018-10-11T15:41:43.272Z,6.57
2018-10-11T15:44:12.872Z,7.20
2018-10-11T15:46:41.744Z,7.50
2018-10-11T15:49:10.058Z,6.53
2018-10-11T15:51:38.602Z,7.30
2018-10-11T15:54:07.045Z,6.80
2018-10-11T15:56:35.301Z,7.40
2018-10-11T15:59:03.608Z,7.20
2018-10-11T16:01:31.850Z,7.70
2018-10-11T16:04:00.099Z,7.90
2018-10-11T16:06:28.622Z,8.27
2018-10-11T16:08:57.018Z,7.80
2018-10-11T16:11:25.208Z,8.90
2018-10-11T16:13:53.728Z,11.00
2018-10-11T16:16:21.922Z,8.67
2018-10-11T16:18:50.194Z,8.17
2018-10-11T16:21:18.457Z,10.30
2018-10-11T16:23:46.706Z,7.80
2018-10-11T16:26:14.970Z,7.20
2018-10-11T16:28:43.189Z,8.60
2018-10-11T16:31:11.418Z,9.27
2018-10-11T16:33:39.708Z,9.70
2018-10-11T16:36:07.925Z,10.10
2018-10-11T16:38:36.137Z,9.27
2018-10-11T16:41:04.400Z,9.03
2018-10-11T16:43:32.644Z,9.17
2018-10-11T16:46:00.886Z,9.13
2018-10-11T16:48:29.157Z,9.63
2018-10-11T16:50:57.395Z,9.83
2018-10-11T16:53:25.595Z,11.37
2018-10-11T16:55:53.837Z,10.83
2018-10-11T16:58:22.041Z,11.47
2018-10-11T17:00:50.715Z,11.80
2018-10-11T17:03:19.194Z,11.47
2018-10-11T17:05:47.423Z,11.43
2018-10-11T17:08:15.658Z,11.70
2018-10-11T17:10:43.873Z,10.83
2018-10-11T17:13:12.113Z,11.93
2018-10-11T17:15:40.329Z,12.13
2018-10-11T17:18:08.565Z,11.37
2018-10-11T17:20:36.806Z,11.70
2018-10-11T17:23:05.073Z,11.20
2018-10-11T17:25:33.351Z,12.07
2018-10-11T17:28:01.707Z,11.60
2018-10-11T17:30:29.905Z,11.50
2018-10-11T17:32:58.386Z,11.13
2018-10-11T17:35:26.585Z,11.77
2018-10-11T17:37:54.831Z,11.23
2018-10-11T17:40:23.088Z,11.43
2018-10-11T17:42:51.309Z,10.60
2018-10-11T17:45:19.564Z,11.37
2018-10-11T17:47:47.833Z,11.37
2018-10-11T17:50:16.083Z,11.90
2018-10-11T17:52:44.284Z,13.53
2018-10-11T17:55:12.501Z,11.83
2018-10-11T17:57:40.715Z,10.90
2018-10-11T18:00:10.182Z,12.10
2018-10-11T18:02:38.429Z,12.00
2018-10-11T18:05:07.131Z,12.00
2018-10-11T18:07:35.514Z,10.50
2018-10-11T18:10:04.078Z,12.47
2018-10-11T18:12:32.265Z,12.23
2018-10-11T18:15:00.493Z,12.27
2018-10-11T18:17:28.730Z,12.20
2018-10-11T18:19:56.945Z,11.50
2018-10-11T18:22:25.166Z,11.43
2018-10-11T18:24:53.397Z,12.67
2018-10-11T18:27:21.609Z,14.30
2018-10-11T18:29:50.255Z,13.83
2018-10-11T18:32:18.809Z,14.20
2018-10-11T18:34:47.040Z,12.37
2018-10-11T18:37:15.292Z,12.80
2018-10-11T18:39:43.515Z,11.60
2018-10-11T18:42:11.769Z,13.10
2018-10-11T18:44:40.092Z,11.43
2018-10-11T18:47:08.299Z,11.50
2018-10-11T18:49:36.672Z,11.60
2018-10-11T18:52:04.885Z,11.27
2018-10-11T18:54:33.103Z,12.43
2018-10-11T18:57:01.303Z,12.77
2018-10-11T18:59:29.517Z,10.57
2018-10-11T19:01:57.730Z,10.83
2018-10-11T19:04:25.997Z,11.27
2018-10-11T19:06:54.219Z,10.63
2018-10-11T19:09:22.445Z,12.03
2018-10-11T19:11:50.672Z,11.67
2018-10-11T19:14:18.924Z,10.57
2018-10-11T19:16:47.189Z,11.20
2018-10-11T19:19:15.459Z,11.30
2018-10-11T19:21:43.753Z,11.80
2018-10-11T19:24:12.033Z,11.70
2018-10-11T19:26:40.289Z,13.07
2018-10-11T19:29:08.630Z,12.93
2018-10-11T19:31:36.821Z,13.50
2018-10-11T19:34:05.061Z,13.17
2018-10-11T19:36:33.257Z,13.03
2018-10-11T19:39:01.534Z,12.43
2018-10-11T19:41:29.840Z,14.57
2018-10-11T19:43:58.090Z,13.57
2018-10-11T19:46:26.317Z,13.83
2018-10-11T19:48:54.548Z,13.73
2018-10-11T19:51:22.763Z,13.67
2018-10-11T19:53:50.968Z,15.77
2018-10-11T19:56:19.192Z,13.77
2018-10-11T19:58:47.394Z,14.90
2018-10-11T20:01:15.702Z,17.37
2018-10-11T20:03:43.925Z,16.60
2018-10-11T20:06:12.342Z,16.03
2018-10-11T20:08:40.585Z,16.23
2018-10-11T20:11:08.757Z,16.97
2018-10-11T20:13:37.106Z,16.73
2018-10-11T20:16:05.369Z,15.97
2018-10-11T20:18:33.746Z,15.90
2018-10-11T20:21:01.973Z,15.20
2018-10-11T20:23:30.473Z,15.07
2018-10-11T20:25:58.741Z,15.60
2018-10-11T20:28:27.158Z,15.70
2018-10-11T20:30:55.415Z,14.53
2018-10-11T20:33:23.668Z,14.73
2018-10-11T20:35:51.857Z,17.10
2018-10-11T20:38:20.118Z,16.23
2018-10-11T20:40:48.333Z,15.40
2018-10-11T20:43:16.516Z,15.00
2018-10-11T20:45:44.978Z,17.20
2018-10-11T20:48:13.229Z,17.47
2018-10-11T20:50:41.451Z,15.80
2018-10-11T20:53:09.677Z,16.47
2018-10-11T20:55:37.858Z,17.37
2018-10-11T20:58:06.081Z,16.83
2018-10-11T21:00:35.177Z,16.67
2018-10-11T21:03:03.401Z,15.93
2018-10-11T21:05:31.610Z,15.53
2018-10-11T21:08:00.085Z,16.83
2018-10-11T21:10:28.330Z,15.00
2018-10-11T21:12:56.541Z,14.73
2018-10-11T21:15:24.745Z,15.00
2018-10-11T21:17:52.988Z,13.60
2018-10-11T21:20:21.304Z,13.33
2018-10-11T21:22:49.464Z,13.17
2018-10-11T21:25:17.710Z,12.80
2018-10-11T21:27:45.956Z,13.20
2018-10-11T21:30:14.423Z,13.10
2018-10-11T21:32:42.627Z,12.60
2018-10-11T21:35:10.989Z,12.67
2018-10-11T21:37:39.170Z,12.73
2018-10-11T21:40:07.412Z,12.50
2018-10-11T21:42:35.682Z,12.90
2018-10-11T21:45:03.949Z,12.47
2018-10-11T21:47:32.204Z,13.37
2018-10-11T21:50:00.419Z,13.60
2018-10-11T21:52:28.812Z,12.40
2018-10-11T21:54:56.978Z,11.00
2018-10-11T21:57:25.177Z,12.13
2018-10-11T21:59:53.455Z,12.33
2018-10-11T22:02:21.783Z,10.93
2018-10-11T22:04:50.016Z,11.00
2018-10-11T22:07:18.245Z,11.23
2018-10-11T22:09:46.473Z,10.30
2018-10-11T22:12:14.675Z,10.63
2018-10-11T22:14:43.020Z,11.10
2018-10-11T22:17:11.194Z,11.43
2018-10-11T22:19:39.421Z,10.27
2018-10-11T22:22:07.669Z,11.07
2018-10-11T22:24:35.924Z,11.17
2018-10-11T22:27:04.132Z,11.33
2018-10-11T22:29:32.369Z,10.13
2018-10-11T22:32:00.836Z,10.37
2018-10-11T22:34:29.035Z,11.27
2018-10-11T22:36:57.510Z,10.60
2018-10-11T22:39:25.634Z,11.40
2018-10-11T22:41:53.901Z,11.67
2018-10-11T22:44:22.146Z,12.10
2018-10-11T22:46:50.323Z,11.97
2018-10-11T22:49:18.510Z,11.07
2018-10-11T22:51:46.746Z,10.37
2018-10-11T22:54:14.957Z,9.90
2018-10-11T22:56:43.189Z,9.77
2018-10-11T22:59:11.602Z,9.43
2018-10-11T23:01:39.794Z,9.70
2018-10-11T23:04:08.026Z,9.33
2018-10-11T23:06:36.245Z,8.70
2018-10-11T23:09:05.954Z,9.80
2018-10-11T23:11:34.197Z,8.83
2018-10-11T23:14:02.764Z,9.90
2018-10-11T23:16:30.972Z,11.40
2018-10-11T23:18:59.181Z,8.63
2018-10-11T23:21:27.695Z,9.20
2018-10-11T23:23:55.923Z,9.30
2018-10-11T23:26:24.150Z,11.57
2018-10-11T23:28:52.433Z,9.97
2018-10-11T23:31:20.641Z,10.40
2018-10-11T23:33:49.045Z,9.80
2018-10-11T23:36:17.285Z,8.90
2018-10-11T23:38:45.529Z,10.87
2018-10-11T23:41:13.798Z,10.40
2018-10-11T23:43:42.134Z,10.93
2018-10-11T23:46:10.422Z,9.77
2018-10-11T23:48:38.698Z,10.13
2018-10-11T23:51:07.094Z,10.43
2018-10-11T23:53:35.470Z,10.20
2018-10-11T23:56:03.714Z,10.23
2018-10-11T23:58:31.911Z,10.20
